createdAt,value
2022-08-22T00:02:15.620Z,19.60
2022-08-22T00:02:49.633Z,20.64
2022-08-22T00:04:45.711Z,19.55
2022-08-22T00:07:15.991Z,19.52
2022-08-22T00:09:46.299Z,19.48
2022-08-22T00:12:16.578Z,19.42
2022-08-22T00:14:46.919Z,19.36
2022-08-22T00:17:17.317Z,19.34
2022-08-22T00:19:47.533Z,19.33
2022-08-22T00:22:17.828Z,19.30
2022-08-22T00:24:48.156Z,19.29
2022-08-22T00:27:18.438Z,19.31
2022-08-22T00:29:48.819Z,19.34
2022-08-22T00:32:19.189Z,19.36
2022-08-22T00:34:49.388Z,19.36
2022-08-22T00:37:19.686Z,19.28
2022-08-22T00:39:50.133Z,19.20
2022-08-22T00:42:31.666Z,19.20
2022-08-22T00:44:50.653Z,19.18
2022-08-22T00:47:20.942Z,19.15
2022-08-22T00:49:51.250Z,19.09
2022-08-22T00:52:21.559Z,19.08
2022-08-22T00:54:51.900Z,19.07
2022-08-22T00:57:22.190Z,19.07
2022-08-22T00:59:52.533Z,19.09
2022-08-22T01:02:22.859Z,19.10
2022-08-22T01:04:53.151Z,19.13
2022-08-22T01:07:23.437Z,19.15
2022-08-22T01:09:53.767Z,19.12
2022-08-22T01:12:24.136Z,19.10
2022-08-22T01:14:54.394Z,19.07
2022-08-22T01:17:24.713Z,19.05
2022-08-22T01:19:55.016Z,19.03
2022-08-22T01:22:25.305Z,19.01
2022-08-22T01:24:55.741Z,18.96
2022-08-22T01:27:25.665Z,18.92
2022-08-22T01:29:56.026Z,18.89
2022-08-22T01:32:26.420Z,18.89
2022-08-22T01:34:56.759Z,18.88
2022-08-22T01:37:26.938Z,18.87
2022-08-22T01:39:57.350Z,18.83
2022-08-22T01:42:27.757Z,18.82
2022-08-22T01:44:57.892Z,18.82
2022-08-22T01:47:28.269Z,18.80
2022-08-22T01:49:58.597Z,18.78
2022-08-22T01:52:28.806Z,18.79
2022-08-22T01:54:59.156Z,18.80
2022-08-22T01:57:29.446Z,18.80
2022-08-22T01:59:59.772Z,18.80
2022-08-22T02:02:30.497Z,18.81
2022-08-22T02:05:01.364Z,18.82
2022-08-22T02:07:32.219Z,18.80
2022-08-22T02:10:02.149Z,18.79
2022-08-22T02:12:32.391Z,18.79
2022-08-22T02:15:02.766Z,18.77
2022-08-22T02:17:33.029Z,18.76
2022-08-22T02:20:03.324Z,18.77
2022-08-22T02:22:33.606Z,18.76
2022-08-22T02:25:03.947Z,18.75
2022-08-22T02:27:34.824Z,18.74
2022-08-22T02:30:05.127Z,18.73
2022-08-22T02:32:35.458Z,18.73
2022-08-22T02:35:05.774Z,18.73
2022-08-22T02:37:36.053Z,18.72
2022-08-22T02:40:06.549Z,18.72
2022-08-22T02:42:37.246Z,18.71
2022-08-22T02:45:07.606Z,18.67
2022-08-22T02:47:37.936Z,18.65
2022-08-22T02:50:12.788Z,18.62
2022-08-22T02:52:38.569Z,18.57
2022-08-22T02:55:08.937Z,18.50
2022-08-22T02:57:39.868Z,18.47
2022-08-22T03:00:30.818Z,18.47
2022-08-22T03:02:39.916Z,18.47
2022-08-22T03:05:10.231Z,18.48
2022-08-22T03:07:40.545Z,18.49
2022-08-22T03:10:10.923Z,18.49
2022-08-22T03:12:41.197Z,18.48
2022-08-22T03:15:11.551Z,18.47
2022-08-22T03:17:41.891Z,18.45
2022-08-22T03:20:12.203Z,18.45
2022-08-22T03:22:42.532Z,18.45
2022-08-22T03:25:12.976Z,18.42
2022-08-22T03:27:45.351Z,18.43
2022-08-22T03:30:14.090Z,18.41
2022-08-22T03:32:44.405Z,18.38
2022-08-22T03:35:14.787Z,18.35
2022-08-22T03:37:45.006Z,18.34
2022-08-22T03:40:15.415Z,18.33
2022-08-22T03:42:45.657Z,18.30
2022-08-22T03:45:15.957Z,18.26
2022-08-22T03:47:46.282Z,18.21
2022-08-22T03:50:16.730Z,18.17
2022-08-22T03:52:46.909Z,18.16
2022-08-22T03:55:17.261Z,18.13
2022-08-22T03:57:47.551Z,18.10
2022-08-22T04:00:17.920Z,18.05
2022-08-22T04:02:48.234Z,18.01
2022-08-22T04:05:18.572Z,17.93
2022-08-22T04:07:48.864Z,17.85
2022-08-22T04:10:19.243Z,17.75
2022-08-22T04:12:49.650Z,17.72
2022-08-22T04:15:20.500Z,17.70
2022-08-22T04:17:50.879Z,17.69
2022-08-22T04:20:21.164Z,17.69
2022-08-22T04:22:51.501Z,17.69
2022-08-22T04:25:21.975Z,17.69
2022-08-22T04:27:52.301Z,17.68
2022-08-22T04:30:22.270Z,17.65
2022-08-22T04:32:52.733Z,17.62
2022-08-22T04:35:22.991Z,17.65
2022-08-22T04:37:53.325Z,17.70
2022-08-22T04:40:23.468Z,17.74
2022-08-22T04:42:53.870Z,17.76
2022-08-22T04:45:24.143Z,17.76
2022-08-22T04:47:54.510Z,17.73
2022-08-22T04:50:24.927Z,17.70
2022-08-22T04:52:55.191Z,17.69
2022-08-22T04:55:25.571Z,17.68
2022-08-22T04:57:55.706Z,17.69
2022-08-22T05:00:25.997Z,17.68
2022-08-22T05:02:56.378Z,17.67
2022-08-22T05:05:26.483Z,17.67
2022-08-22T05:07:56.535Z,17.66
2022-08-22T05:10:26.837Z,17.61
2022-08-22T05:12:57.106Z,17.59
2022-08-22T05:15:27.189Z,17.56
2022-08-22T05:17:57.800Z,17.54
2022-08-22T05:20:27.935Z,17.52
2022-08-22T05:22:58.253Z,17.43
2022-08-22T05:25:28.626Z,17.36
2022-08-22T05:27:59.134Z,17.29
2022-08-22T05:30:29.358Z,17.25
2022-08-22T05:32:59.947Z,17.27
2022-08-22T05:35:30.291Z,17.24
2022-08-22T05:38:00.704Z,17.33
2022-08-22T05:40:31.321Z,17.34
2022-08-22T05:43:01.656Z,17.44
2022-08-22T05:45:32.035Z,17.48
2022-08-22T05:48:02.444Z,17.49
2022-08-22T05:50:32.757Z,17.54
2022-08-22T05:53:02.809Z,17.58
2022-08-22T05:55:33.188Z,17.65
2022-08-22T05:58:03.514Z,17.70
2022-08-22T06:00:33.610Z,17.81
2022-08-22T06:03:03.998Z,17.91
2022-08-22T06:05:34.296Z,18.02
2022-08-22T06:08:04.613Z,18.10
2022-08-22T06:10:35.040Z,18.22
2022-08-22T06:13:05.276Z,18.35
2022-08-22T06:15:35.633Z,18.46
2022-08-22T06:18:05.628Z,18.55
2022-08-22T06:20:35.941Z,18.61
2022-08-22T06:23:05.937Z,18.65
2022-08-22T06:25:36.345Z,18.63
2022-08-22T06:28:06.525Z,18.66
2022-08-22T06:30:36.850Z,18.71
2022-08-22T06:33:07.165Z,18.77
2022-08-22T06:35:37.566Z,18.82
2022-08-22T06:38:07.710Z,18.85
2022-08-22T06:40:38.046Z,18.90
2022-08-22T06:43:08.863Z,18.95
2022-08-22T06:45:39.780Z,18.99
2022-08-22T06:48:10.040Z,18.99
2022-08-22T06:50:40.324Z,19.01
2022-08-22T06:53:10.591Z,19.05
2022-08-22T06:55:41.458Z,19.03
2022-08-22T06:58:11.721Z,19.03
2022-08-22T07:00:42.058Z,19.05
2022-08-22T07:03:12.903Z,19.07
2022-08-22T07:05:43.754Z,19.11
2022-08-22T07:08:14.574Z,19.21
2022-08-22T07:10:44.891Z,19.29
2022-08-22T07:13:15.681Z,19.38
2022-08-22T07:15:46.010Z,19.42
2022-08-22T07:18:16.849Z,19.43
2022-08-22T07:20:47.259Z,19.41
2022-08-22T07:23:17.934Z,19.46
2022-08-22T07:25:48.240Z,19.43
2022-08-22T07:28:18.495Z,19.42
2022-08-22T07:30:49.409Z,19.43
2022-08-22T07:33:26.513Z,19.48
2022-08-22T07:35:53.379Z,19.50
2022-08-22T07:38:20.192Z,19.48
2022-08-22T07:40:51.075Z,19.37
2022-08-22T07:43:21.341Z,19.38
2022-08-22T07:45:51.666Z,19.43
2022-08-22T07:48:26.076Z,19.51
2022-08-22T07:50:52.315Z,19.57
2022-08-22T07:53:22.476Z,19.62
2022-08-22T07:55:52.868Z,19.70
2022-08-22T07:58:23.015Z,19.77
2022-08-22T08:00:53.310Z,19.82
2022-08-22T08:03:23.578Z,19.89
2022-08-22T08:05:53.979Z,19.93
2022-08-22T08:08:24.535Z,19.97
2022-08-22T08:10:55.221Z,20.00
2022-08-22T08:13:25.261Z,19.98
2022-08-22T08:15:55.622Z,20.02
2022-08-22T08:18:26.227Z,20.08
2022-08-22T08:20:56.915Z,20.14
2022-08-22T08:23:27.560Z,20.15
2022-08-22T08:25:57.965Z,20.18
2022-08-22T08:28:28.545Z,20.21
2022-08-22T08:30:58.861Z,20.30
2022-08-22T08:33:29.686Z,20.38
2022-08-22T08:36:02.923Z,20.43
2022-08-22T08:38:30.207Z,20.48
2022-08-22T08:41:00.483Z,20.49
2022-08-22T08:43:30.697Z,20.53
2022-08-22T08:46:00.964Z,20.54
2022-08-22T08:48:31.170Z,20.60
2022-08-22T08:51:02.097Z,20.63
2022-08-22T08:53:31.637Z,20.66
2022-08-22T08:56:01.898Z,20.63
2022-08-22T08:58:32.201Z,20.67
2022-08-22T09:01:02.617Z,20.64
2022-08-22T09:03:32.796Z,20.74
2022-08-22T09:06:03.076Z,20.84
2022-08-22T09:08:33.373Z,20.93
2022-08-22T09:11:03.567Z,20.93
2022-08-22T09:13:40.629Z,20.82
2022-08-22T09:16:04.708Z,20.89
2022-08-22T09:18:34.240Z,20.96
2022-08-22T09:21:04.465Z,21.04
2022-08-22T09:23:34.668Z,20.99
2022-08-22T09:26:05.113Z,21.10
2022-08-22T09:28:35.297Z,21.07
2022-08-22T09:31:21.944Z,21.11
2022-08-22T09:33:36.248Z,21.21
2022-08-22T09:36:06.549Z,21.25
2022-08-22T09:38:36.730Z,21.26
2022-08-22T09:41:07.539Z,21.31
2022-08-22T09:43:37.895Z,21.37
2022-08-22T09:46:08.453Z,21.46
2022-08-22T09:48:38.607Z,21.49
2022-08-22T09:51:31.238Z,21.57
2022-08-22T09:53:38.969Z,21.67
2022-08-22T09:56:11.657Z,21.72
2022-08-22T09:58:41.628Z,21.78
2022-08-22T10:01:09.723Z,21.88
2022-08-22T10:03:39.879Z,21.86
2022-08-22T10:06:10.167Z,21.84
2022-08-22T10:08:40.336Z,21.94
2022-08-22T10:11:10.579Z,22.04
2022-08-22T10:13:40.834Z,22.12
2022-08-22T10:16:11.011Z,22.16
2022-08-22T10:18:44.036Z,22.13
2022-08-22T10:21:12.029Z,22.16
2022-08-22T10:23:42.222Z,22.23
2022-08-22T10:26:12.450Z,22.26
2022-08-22T10:28:42.649Z,22.33
2022-08-22T10:31:12.857Z,22.35
2022-08-22T10:33:44.403Z,22.33
2022-08-22T10:36:13.318Z,22.35
2022-08-22T10:38:46.526Z,22.38
2022-08-22T10:41:13.688Z,22.42
2022-08-22T10:43:44.012Z,22.42
2022-08-22T10:46:14.228Z,22.46
2022-08-22T10:48:44.302Z,22.49
2022-08-22T10:51:14.525Z,22.52
2022-08-22T10:53:44.694Z,22.54
2022-08-22T10:56:14.930Z,22.55
2022-08-22T10:58:45.330Z,22.60
2022-08-22T11:01:38.187Z,22.64
2022-08-22T11:03:45.729Z,22.65
2022-08-22T11:06:16.038Z,22.66
2022-08-22T11:08:46.133Z,22.74
2022-08-22T11:11:16.354Z,22.79
2022-08-22T11:13:47.093Z,22.78
2022-08-22T11:16:17.300Z,22.85
2022-08-22T11:18:57.796Z,22.91
2022-08-22T11:21:17.744Z,22.96
2022-08-22T11:23:47.904Z,23.00
2022-08-22T11:26:29.165Z,23.07
2022-08-22T11:28:48.294Z,23.19
2022-08-22T11:31:18.497Z,23.32
2022-08-22T11:33:48.790Z,23.33
2022-08-22T11:36:18.876Z,23.40
2022-08-22T11:38:49.029Z,23.40
2022-08-22T11:41:19.237Z,23.39
2022-08-22T11:43:49.411Z,23.47
2022-08-22T11:46:19.941Z,23.47
2022-08-22T11:48:49.777Z,23.42
2022-08-22T11:51:23.144Z,23.41
2022-08-22T11:53:50.144Z,23.46
2022-08-22T11:56:20.334Z,23.61
2022-08-22T11:58:50.582Z,23.71
2022-08-22T12:01:20.981Z,23.85
2022-08-22T12:03:51.020Z,23.93
2022-08-22T12:06:21.097Z,24.02
2022-08-22T12:08:51.340Z,24.12
2022-08-22T12:11:21.401Z,24.17
2022-08-22T12:13:51.698Z,24.14
2022-08-22T12:16:21.746Z,24.11
2022-08-22T12:18:52.988Z,24.04
2022-08-22T12:21:22.144Z,23.94
2022-08-22T12:23:52.210Z,23.89
2022-08-22T12:26:22.452Z,23.83
2022-08-22T12:28:52.522Z,23.99
2022-08-22T12:31:23.277Z,24.13
2022-08-22T12:33:53.418Z,24.31
2022-08-22T12:36:23.638Z,24.42
2022-08-22T12:38:53.753Z,24.59
2022-08-22T12:41:28.010Z,24.75
2022-08-22T12:43:54.042Z,24.86
2022-08-22T12:46:24.300Z,24.83
2022-08-22T12:48:54.412Z,24.74
2022-08-22T12:51:24.570Z,24.87
2022-08-22T12:53:54.655Z,24.97
2022-08-22T12:56:24.740Z,25.02
2022-08-22T12:58:54.877Z,25.09
2022-08-22T13:01:33.956Z,25.12
2022-08-22T13:03:55.139Z,25.15
2022-08-22T13:06:25.317Z,25.22
2022-08-22T13:08:55.397Z,25.28
2022-08-22T13:11:25.601Z,25.35
2022-08-22T13:13:56.196Z,25.39
2022-08-22T13:16:25.837Z,25.45
2022-08-22T13:18:55.904Z,25.50
2022-08-22T13:21:26.060Z,25.51
2022-08-22T13:23:56.131Z,25.56
2022-08-22T13:26:32.005Z,25.61
2022-08-22T13:29:15.249Z,25.67
2022-08-22T13:31:26.477Z,25.74
2022-08-22T13:33:56.549Z,25.79
2022-08-22T13:36:26.789Z,25.81
2022-08-22T13:38:56.737Z,25.86
2022-08-22T13:41:26.872Z,25.93
2022-08-22T13:43:56.925Z,25.83
2022-08-22T13:46:28.144Z,25.89
2022-08-22T13:49:00.805Z,25.88
2022-08-22T13:51:27.348Z,25.86
2022-08-22T13:54:00.635Z,25.91
2022-08-22T13:56:27.401Z,26.00
2022-08-22T13:58:57.462Z,26.08
2022-08-22T14:01:28.383Z,26.11
2022-08-22T14:03:57.702Z,26.20
2022-08-22T14:06:36.814Z,26.25
2022-08-22T14:08:57.812Z,26.22
2022-08-22T14:11:27.919Z,26.22
2022-08-22T14:13:57.988Z,26.24
2022-08-22T14:16:28.087Z,26.27
2022-08-22T14:18:58.149Z,26.31
2022-08-22T14:21:28.331Z,26.28
2022-08-22T14:23:58.391Z,26.36
2022-08-22T14:26:33.139Z,26.39
2022-08-22T14:28:58.605Z,26.42
2022-08-22T14:31:28.740Z,26.46
2022-08-22T14:33:58.825Z,26.51
2022-08-22T14:36:28.989Z,26.33
2022-08-22T14:38:59.035Z,26.26
2022-08-22T14:41:56.010Z,26.30
2022-08-22T14:43:59.314Z,26.35
2022-08-22T14:46:29.442Z,26.41
2022-08-22T14:48:59.570Z,26.47
2022-08-22T14:51:29.707Z,26.50
2022-08-22T14:53:59.683Z,26.51
2022-08-22T14:56:29.929Z,26.39
2022-08-22T14:58:59.905Z,26.22
2022-08-22T15:01:33.067Z,26.29
2022-08-22T15:04:00.141Z,26.27
2022-08-22T15:06:30.408Z,26.29
2022-08-22T15:09:00.403Z,26.32
2022-08-22T15:11:31.920Z,26.28
2022-08-22T15:14:00.614Z,26.23
2022-08-22T15:16:30.756Z,26.31
2022-08-22T15:19:00.857Z,26.39
2022-08-22T15:21:31.024Z,26.42
2022-08-22T15:24:01.076Z,26.44
2022-08-22T15:26:31.209Z,26.47
2022-08-22T15:29:01.296Z,26.52
2022-08-22T15:31:31.435Z,26.60
2022-08-22T15:34:01.516Z,26.63
2022-08-22T15:36:31.672Z,26.51
2022-08-22T15:39:01.757Z,26.44
2022-08-22T15:41:36.678Z,26.41
2022-08-22T15:44:01.967Z,26.36
2022-08-22T15:46:32.658Z,26.32
2022-08-22T15:49:02.760Z,26.33
2022-08-22T15:51:32.931Z,26.34
2022-08-22T15:54:02.993Z,26.36
2022-08-22T15:56:33.136Z,26.40
2022-08-22T15:59:03.239Z,26.45
2022-08-22T16:01:33.459Z,26.43
2022-08-22T16:04:03.473Z,26.40
2022-08-22T16:06:33.642Z,26.40
2022-08-22T16:09:03.705Z,26.40
2022-08-22T16:11:33.934Z,26.38
2022-08-22T16:14:03.942Z,26.27
2022-08-22T16:16:34.083Z,26.17
2022-08-22T16:19:04.186Z,26.09
2022-08-22T16:21:34.366Z,26.03
2022-08-22T16:24:04.423Z,25.94
2022-08-22T16:26:34.552Z,25.88
2022-08-22T16:29:04.651Z,25.88
2022-08-22T16:31:34.814Z,25.88
2022-08-22T16:34:05.004Z,25.89
2022-08-22T16:36:35.146Z,25.92
2022-08-22T16:39:05.251Z,25.93
2022-08-22T16:41:35.310Z,25.95
2022-08-22T16:44:05.475Z,25.97
2022-08-22T16:46:36.672Z,25.97
2022-08-22T16:49:05.684Z,25.96
2022-08-22T16:51:35.875Z,25.96
2022-08-22T16:54:05.942Z,25.94
2022-08-22T16:56:36.105Z,25.89
2022-08-22T16:59:19.685Z,25.84
2022-08-22T17:01:36.499Z,25.84
2022-08-22T17:04:06.498Z,25.84
2022-08-22T17:06:36.701Z,25.86
2022-08-22T17:09:06.885Z,25.91
2022-08-22T17:11:36.932Z,25.93
2022-08-22T17:14:07.216Z,25.95
2022-08-22T17:16:37.207Z,25.94
2022-08-22T17:19:07.364Z,25.89
2022-08-22T17:21:37.531Z,25.82
2022-08-22T17:24:07.661Z,25.79
2022-08-22T17:26:37.913Z,25.79
2022-08-22T17:29:08.165Z,25.79
2022-08-22T17:31:38.945Z,25.80
2022-08-22T17:34:09.188Z,25.78
2022-08-22T17:36:39.300Z,25.76
2022-08-22T17:39:09.966Z,25.73
2022-08-22T17:41:40.250Z,25.68
2022-08-22T17:44:10.735Z,25.60
2022-08-22T17:46:41.594Z,25.55
2022-08-22T17:49:11.877Z,25.52
2022-08-22T17:51:41.918Z,25.48
2022-08-22T17:54:12.000Z,25.43
2022-08-22T17:56:42.111Z,25.39
2022-08-22T18:01:42.509Z,25.34
2022-08-22T18:04:12.457Z,25.29
2022-08-22T18:06:42.647Z,25.26
2022-08-22T18:09:14.190Z,25.18
2022-08-22T18:11:42.879Z,25.11
2022-08-22T18:14:13.025Z,25.05
2022-08-22T18:16:43.146Z,24.98
2022-08-22T18:19:13.250Z,24.92
2022-08-22T18:21:43.431Z,24.87
2022-08-22T18:24:13.733Z,24.81
2022-08-22T18:26:43.837Z,24.75
2022-08-22T18:29:13.785Z,24.74
2022-08-22T18:31:43.966Z,24.72
2022-08-22T18:34:14.089Z,24.68
2022-08-22T18:36:44.294Z,24.62
2022-08-22T18:39:14.380Z,24.53
2022-08-22T18:41:44.720Z,24.49
2022-08-22T18:44:14.752Z,24.45
2022-08-22T18:46:45.073Z,24.41
2022-08-22T18:49:15.970Z,24.36
2022-08-22T18:51:45.184Z,24.30
2022-08-22T18:54:15.294Z,24.27
2022-08-22T18:56:45.463Z,24.19
2022-08-22T18:59:15.584Z,24.14
2022-08-22T19:01:45.841Z,24.10
2022-08-22T19:04:16.557Z,24.07
2022-08-22T19:06:46.667Z,24.03
2022-08-22T19:09:16.790Z,23.96
2022-08-22T19:11:47.111Z,23.86
2022-08-22T19:14:17.128Z,23.80
2022-08-22T19:16:47.324Z,23.76
2022-08-22T19:19:17.779Z,23.73
2022-08-22T19:21:47.725Z,23.71
2022-08-22T19:24:17.813Z,23.70
2022-08-22T19:26:48.021Z,23.67
2022-08-22T19:29:18.246Z,23.65
2022-08-22T19:31:48.382Z,23.59
2022-08-22T19:34:18.567Z,23.54
2022-08-22T19:36:48.841Z,23.48
2022-08-22T19:39:18.962Z,23.41
2022-08-22T19:41:49.216Z,23.38
2022-08-22T19:44:19.370Z,23.30
2022-08-22T19:46:49.600Z,23.25
2022-08-22T19:49:19.770Z,23.21
2022-08-22T19:51:50.075Z,23.16
2022-08-22T19:54:20.192Z,23.12
2022-08-22T19:56:50.547Z,23.08
2022-08-22T19:59:20.638Z,23.06
2022-08-22T20:01:50.863Z,22.99
2022-08-22T20:04:21.031Z,22.87
2022-08-22T20:06:51.306Z,22.86
2022-08-22T20:09:21.479Z,22.84
2022-08-22T20:11:51.713Z,22.82
2022-08-22T20:14:28.488Z,22.80
2022-08-22T20:16:52.185Z,22.81
2022-08-22T20:19:22.343Z,22.83
2022-08-22T20:21:52.608Z,22.83
2022-08-22T20:24:22.779Z,22.81
2022-08-22T20:27:12.636Z,22.78
2022-08-22T20:29:23.228Z,22.73
2022-08-22T20:31:56.752Z,22.70
2022-08-22T20:34:23.658Z,22.68
2022-08-22T20:37:09.802Z,22.66
2022-08-22T20:39:24.666Z,22.66
2022-08-22T20:41:55.017Z,22.65
2022-08-22T20:44:25.239Z,22.64
2022-08-22T20:46:55.520Z,22.61
2022-08-22T20:49:25.650Z,22.60
2022-08-22T20:51:55.943Z,22.58
2022-08-22T20:54:26.096Z,22.54
2022-08-22T20:56:56.352Z,22.52
2022-08-22T20:59:26.539Z,22.48
2022-08-22T21:01:56.794Z,22.45
2022-08-22T21:04:27.036Z,22.44
2022-08-22T21:06:57.364Z,22.41
2022-08-22T21:09:27.546Z,22.36
2022-08-22T21:11:57.792Z,22.26
2022-08-22T21:14:27.916Z,22.22
2022-08-22T21:16:58.171Z,22.22
2022-08-22T21:19:28.361Z,22.19
2022-08-22T21:21:58.710Z,22.16
2022-08-22T21:24:28.798Z,22.13
2022-08-22T21:26:59.068Z,22.05
2022-08-22T21:29:34.016Z,21.99
2022-08-22T21:32:04.648Z,21.92
2022-08-22T21:34:29.733Z,21.88
2022-08-22T21:37:00.041Z,21.80
2022-08-22T21:39:30.213Z,21.70
2022-08-22T21:42:00.480Z,21.62
2022-08-22T21:44:30.711Z,21.54
2022-08-22T21:47:01.066Z,21.45
2022-08-22T21:49:31.210Z,21.36
2022-08-22T21:52:01.605Z,21.29
2022-08-22T21:54:31.703Z,21.26
2022-08-22T21:57:02.555Z,21.24
2022-08-22T21:59:43.141Z,21.23
2022-08-22T22:02:03.162Z,21.23
2022-08-22T22:04:33.303Z,21.18
2022-08-22T22:07:04.239Z,21.14
2022-08-22T22:09:34.343Z,21.11
2022-08-22T22:12:04.660Z,21.12
2022-08-22T22:14:34.842Z,21.13
2022-08-22T22:17:05.123Z,21.14
2022-08-22T22:19:35.333Z,21.13
2022-08-22T22:22:05.654Z,21.10
2022-08-22T22:24:35.860Z,21.09
2022-08-22T22:27:06.125Z,21.08
2022-08-22T22:29:36.340Z,21.10
2022-08-22T22:32:06.703Z,21.10
2022-08-22T22:34:36.827Z,21.08
2022-08-22T22:37:07.149Z,21.05
2022-08-22T22:39:37.323Z,21.05
2022-08-22T22:42:08.169Z,21.04
2022-08-22T22:44:38.397Z,21.04
2022-08-22T22:47:08.679Z,21.04
2022-08-22T22:49:39.468Z,21.01
2022-08-22T22:52:11.593Z,20.97
2022-08-22T22:54:40.540Z,20.91
2022-08-22T22:57:12.471Z,20.88
2022-08-22T22:59:41.597Z,20.84
2022-08-22T23:02:11.906Z,20.78
2022-08-22T23:04:42.202Z,20.76
2022-08-22T23:07:12.501Z,20.78
2022-08-22T23:09:44.736Z,20.77
2022-08-22T23:12:13.066Z,20.75
2022-08-22T23:14:43.316Z,20.73
2022-08-22T23:17:13.587Z,20.73
2022-08-22T23:19:43.820Z,20.72
2022-08-22T23:22:14.132Z,20.69
2022-08-22T23:24:44.331Z,20.68
2022-08-22T23:27:14.627Z,20.67
2022-08-22T23:29:44.930Z,20.65
2022-08-22T23:32:15.132Z,20.63
2022-08-22T23:34:45.590Z,20.58
2022-08-22T23:37:16.035Z,20.51
2022-08-22T23:39:46.210Z,20.46
2022-08-22T23:42:16.429Z,20.43
2022-08-22T23:44:46.671Z,20.41
2022-08-22T23:47:16.970Z,20.38
2022-08-22T23:49:47.332Z,20.32
2022-08-22T23:52:17.569Z,20.30
2022-08-22T23:54:47.512Z,20.27
2022-08-22T23:57:17.867Z,20.25
2022-08-22T23:59:57.844Z,20.23
